createdAt,value
2022-10-19T00:01:13.036Z,2.22
2022-10-19T00:03:43.581Z,2.05
2022-10-19T00:06:13.702Z,1.90
2022-10-19T00:08:41.801Z,2.15
2022-10-19T00:11:10.468Z,3.03
2022-10-19T00:13:38.557Z,2.85
2022-10-19T00:16:11.545Z,3.42
2022-10-19T00:18:40.328Z,2.83
2022-10-19T00:21:11.377Z,2.60
2022-10-19T00:23:39.802Z,1.70
2022-10-19T00:26:08.673Z,3.13
2022-10-19T00:28:36.865Z,2.63
2022-10-19T00:31:06.136Z,3.15
2022-10-19T00:33:34.499Z,2.37
2022-10-19T00:36:03.090Z,3.38
2022-10-19T00:38:33.141Z,3.58
2022-10-19T00:41:01.258Z,2.28
2022-10-19T00:43:32.632Z,3.05
2022-10-19T00:46:00.716Z,3.30
2022-10-19T00:48:32.818Z,4.50
2022-10-19T00:51:01.389Z,3.15
2022-10-19T00:53:31.914Z,1.80
2022-10-19T00:56:07.048Z,2.10
2022-10-19T00:58:35.656Z,1.45
2022-10-19T01:01:06.796Z,3.45
2022-10-19T01:03:35.245Z,1.65
2022-10-19T01:06:04.240Z,1.95
2022-10-19T01:08:32.906Z,2.05
2022-10-19T01:11:24.460Z,1.83
2022-10-19T01:14:03.497Z,2.33
2022-10-19T01:16:47.725Z,2.05
2022-10-19T01:19:40.796Z,1.55
2022-10-19T01:22:23.072Z,2.15
2022-10-19T01:25:01.288Z,2.50
2022-10-19T01:28:02.218Z,1.30
2022-10-19T01:30:42.823Z,2.75
2022-10-19T01:33:25.325Z,2.28
2022-10-19T01:36:02.875Z,1.90
2022-10-19T01:38:37.418Z,1.63
2022-10-19T01:41:15.516Z,2.20
2022-10-19T01:43:45.248Z,2.83
2022-10-19T01:46:19.478Z,3.40
2022-10-19T01:48:51.376Z,3.83
2022-10-19T01:51:21.274Z,2.22
2022-10-19T01:53:52.255Z,1.95
2022-10-19T01:56:24.733Z,3.38
2022-10-19T01:58:53.278Z,1.83
2022-10-19T02:01:24.326Z,1.95
2022-10-19T02:03:53.866Z,1.48
2022-10-19T02:06:22.648Z,2.83
2022-10-19T02:08:52.490Z,1.70
2022-10-19T02:11:21.843Z,2.20
2022-10-19T02:13:51.514Z,3.35
2022-10-19T02:16:22.425Z,1.75
2022-10-19T02:18:53.512Z,3.85
2022-10-19T02:21:22.012Z,2.17
2022-10-19T02:23:53.375Z,1.27
2022-10-19T02:26:22.874Z,2.30
2022-10-19T02:28:51.671Z,1.58
2022-10-19T02:31:20.080Z,2.08
2022-10-19T02:33:48.479Z,1.40
2022-10-19T02:36:18.324Z,2.83
2022-10-19T02:38:46.824Z,1.63
2022-10-19T02:41:17.920Z,2.33
2022-10-19T02:43:49.378Z,1.60
2022-10-19T02:46:20.496Z,1.95
2022-10-19T02:48:49.452Z,2.42
2022-10-19T02:51:32.040Z,3.60
2022-10-19T02:54:04.120Z,1.92
2022-10-19T02:56:33.946Z,3.05
2022-10-19T02:59:02.127Z,0.80
2022-10-19T03:01:30.499Z,1.48
2022-10-19T03:03:58.850Z,1.13
2022-10-19T03:06:26.883Z,1.33
2022-10-19T03:08:56.427Z,2.38
2022-10-19T03:11:24.807Z,1.15
2022-10-19T03:13:53.175Z,1.38
2022-10-19T03:16:21.265Z,2.67
2022-10-19T03:18:49.813Z,1.13
2022-10-19T03:21:18.165Z,1.83
2022-10-19T03:23:46.567Z,1.25
2022-10-19T03:26:17.658Z,2.70
2022-10-19T03:28:46.144Z,2.63
2022-10-19T03:31:14.523Z,2.30
2022-10-19T03:33:42.968Z,2.58
2022-10-19T03:36:14.735Z,1.95
2022-10-19T03:38:43.113Z,2.30
2022-10-19T03:41:11.695Z,2.63
2022-10-19T03:43:42.193Z,2.42
2022-10-19T03:46:10.902Z,1.70
2022-10-19T03:48:39.315Z,3.45
2022-10-19T03:51:10.537Z,3.72
2022-10-19T03:53:40.529Z,2.05
2022-10-19T03:58:40.290Z,2.03
2022-10-19T04:01:10.343Z,1.65
2022-10-19T04:03:38.837Z,1.60
2022-10-19T04:06:09.568Z,1.38
2022-10-19T04:08:38.222Z,2.88
2022-10-19T04:11:07.739Z,2.42
2022-10-19T04:13:36.474Z,2.85
2022-10-19T04:16:06.622Z,1.52
2022-10-19T04:18:35.007Z,2.47
2022-10-19T04:21:04.566Z,11.25
2022-10-19T04:23:34.532Z,1.48
2022-10-19T04:28:31.491Z,1.98
2022-10-19T04:31:03.559Z,1.95
2022-10-19T04:33:33.744Z,1.63
2022-10-19T04:36:02.228Z,1.35
2022-10-19T04:38:30.951Z,1.20
2022-10-19T04:41:03.215Z,1.70
2022-10-19T04:43:31.650Z,1.77
2022-10-19T04:46:03.621Z,1.73
2022-10-19T04:48:33.537Z,1.38
2022-10-19T04:51:01.907Z,1.13
2022-10-19T04:53:30.332Z,1.40
2022-10-19T04:55:58.787Z,2.75
2022-10-19T04:58:27.423Z,2.28
2022-10-19T05:00:55.620Z,3.70
2022-10-19T05:03:23.752Z,2.92
2022-10-19T05:05:53.263Z,2.40
2022-10-19T05:08:21.626Z,5.85
2022-10-19T05:10:50.007Z,3.17
2022-10-19T05:13:18.394Z,3.70
2022-10-19T05:15:56.941Z,2.60
2022-10-19T05:18:25.341Z,2.13
2022-10-19T05:21:02.299Z,2.65
2022-10-19T05:26:05.347Z,4.85
2022-10-19T05:28:34.060Z,6.78
2022-10-19T05:31:09.631Z,4.93
2022-10-19T05:33:38.259Z,3.80
2022-10-19T05:36:19.269Z,3.40
2022-10-19T05:38:48.465Z,4.50
2022-10-19T05:41:17.831Z,6.13
2022-10-19T05:43:47.052Z,4.43
2022-10-19T05:46:18.203Z,8.20
2022-10-19T05:48:47.191Z,3.50
2022-10-19T05:51:18.377Z,2.03
2022-10-19T05:53:46.958Z,2.13
2022-10-19T05:56:17.693Z,3.55
2022-10-19T05:58:46.107Z,5.18
2022-10-19T06:01:15.124Z,3.97
2022-10-19T06:03:43.611Z,3.25
2022-10-19T06:06:12.184Z,5.50
2022-10-19T06:08:42.204Z,2.97
2022-10-19T06:13:39.956Z,2.40
2022-10-19T06:16:09.896Z,3.42
2022-10-19T06:18:38.592Z,3.03
2022-10-19T06:21:08.922Z,3.35
2022-10-19T06:23:37.674Z,5.13
2022-10-19T06:26:08.588Z,3.35
2022-10-19T06:28:38.048Z,5.00
2022-10-19T06:31:08.545Z,3.65
2022-10-19T06:33:38.041Z,2.10
2022-10-19T06:36:09.388Z,1.75
2022-10-19T06:38:37.844Z,2.55
2022-10-19T06:41:07.769Z,3.38
2022-10-19T06:43:36.496Z,3.22
2022-10-19T06:46:06.291Z,3.13
2022-10-19T06:48:34.792Z,6.25
2022-10-19T06:51:06.333Z,5.63
2022-10-19T06:53:35.325Z,2.75
2022-10-19T06:56:05.228Z,6.68
2022-10-19T06:58:37.971Z,4.40
2022-10-19T07:01:07.643Z,8.68
2022-10-19T07:03:36.779Z,3.13
2022-10-19T07:06:06.765Z,2.20
2022-10-19T07:11:04.559Z,1.67
2022-10-19T07:13:33.073Z,4.22
2022-10-19T07:16:05.640Z,2.85
2022-10-19T07:18:34.585Z,2.85
2022-10-19T07:21:04.262Z,2.75
2022-10-19T07:23:33.960Z,2.80
2022-10-19T07:26:05.646Z,3.05
2022-10-19T07:28:34.343Z,4.63
2022-10-19T07:31:07.828Z,3.90
2022-10-19T07:33:36.174Z,1.17
2022-10-19T07:36:06.652Z,2.47
2022-10-19T07:38:35.579Z,2.85
2022-10-19T07:41:06.268Z,1.25
2022-10-19T07:43:34.638Z,2.35
2022-10-19T07:46:03.909Z,1.98
2022-10-19T07:48:33.786Z,2.17
2022-10-19T07:53:30.600Z,2.45
2022-10-19T07:56:04.943Z,1.00
2022-10-19T07:58:34.300Z,3.60
2022-10-19T08:01:03.241Z,1.50
2022-10-19T08:04:31.235Z,3.10
2022-10-19T08:06:21.331Z,2.05
2022-10-19T08:11:20.924Z,2.53
2022-10-19T08:13:49.717Z,1.85
2022-10-19T08:16:24.499Z,1.15
2022-10-19T08:18:53.351Z,1.80
2022-10-19T08:21:22.972Z,1.92
2022-10-19T08:23:51.223Z,1.85
2022-10-19T08:26:19.403Z,0.63
2022-10-19T08:28:47.517Z,2.08
2022-10-19T08:31:18.300Z,1.25
2022-10-19T08:33:47.183Z,2.58
2022-10-19T08:36:15.769Z,1.42
2022-10-19T08:38:45.216Z,1.58
2022-10-19T08:41:32.840Z,2.08
2022-10-19T08:44:17.663Z,2.33
2022-10-19T08:46:55.306Z,1.00
2022-10-19T08:49:26.721Z,2.10
2022-10-19T08:51:59.090Z,2.28
2022-10-19T08:54:37.007Z,1.02
2022-10-19T08:57:14.635Z,2.10
2022-10-19T08:59:48.941Z,2.50
2022-10-19T09:02:22.731Z,1.00
2022-10-19T09:04:59.495Z,1.27
2022-10-19T09:07:30.590Z,1.58
2022-10-19T09:10:05.661Z,1.55
2022-10-19T09:12:42.181Z,1.50
2022-10-19T09:15:14.888Z,0.50
2022-10-19T09:17:43.034Z,1.38
2022-10-19T09:20:18.053Z,1.13
2022-10-19T09:22:47.088Z,1.23
2022-10-19T09:25:20.709Z,0.97
2022-10-19T09:27:54.161Z,0.50
2022-10-19T09:30:24.655Z,1.17
2022-10-19T09:32:59.630Z,0.95
2022-10-19T09:35:31.745Z,1.17
2022-10-19T09:38:00.519Z,1.73
2022-10-19T09:40:31.735Z,1.00
2022-10-19T09:43:08.519Z,0.70
2022-10-19T09:45:42.001Z,1.38
2022-10-19T09:48:17.827Z,1.15
2022-10-19T09:50:47.159Z,0.82
2022-10-19T09:53:21.276Z,0.85
2022-10-19T09:55:58.499Z,0.55
2022-10-19T09:58:30.561Z,0.70
2022-10-19T10:01:02.220Z,1.38
2022-10-19T10:03:32.435Z,1.08
2022-10-19T10:06:05.266Z,1.13
2022-10-19T10:08:37.896Z,1.00
2022-10-19T10:11:12.356Z,0.60
2022-10-19T10:13:42.816Z,1.10
2022-10-19T10:16:15.160Z,0.95
2022-10-19T10:18:52.933Z,2.08
2022-10-19T10:21:26.139Z,0.63
2022-10-19T10:24:02.805Z,0.82
2022-10-19T10:26:32.617Z,0.88
2022-10-19T10:29:01.622Z,2.22
2022-10-19T10:31:31.287Z,1.30
2022-10-19T10:34:10.856Z,0.90
2022-10-19T10:36:52.852Z,0.43
2022-10-19T10:39:21.560Z,0.80
2022-10-19T10:41:51.329Z,0.73
2022-10-19T10:44:23.225Z,1.85
2022-10-19T10:46:57.296Z,0.75
2022-10-19T10:49:28.668Z,1.10
2022-10-19T10:51:58.819Z,0.70
2022-10-19T10:54:31.168Z,0.85
2022-10-19T10:57:13.837Z,0.63
2022-10-19T10:59:49.388Z,0.50
2022-10-19T11:02:30.330Z,0.50
2022-10-19T11:05:02.697Z,0.75
2022-10-19T11:07:33.900Z,0.40
2022-10-19T11:10:09.970Z,0.40
2022-10-19T11:12:44.494Z,0.38
2022-10-19T11:15:21.080Z,0.43
2022-10-19T11:17:58.547Z,0.60
2022-10-19T11:20:31.263Z,0.57
2022-10-19T11:23:08.422Z,0.70
2022-10-19T11:25:49.371Z,0.20
2022-10-19T11:28:31.865Z,0.50
2022-10-19T11:31:10.204Z,1.48
2022-10-19T11:33:51.790Z,0.30
2022-10-19T11:36:35.772Z,0.50
2022-10-19T11:39:32.931Z,0.25
2022-10-19T11:42:09.799Z,0.40
2022-10-19T11:44:56.223Z,0.30
2022-10-19T11:47:43.161Z,0.52
2022-10-19T11:50:21.279Z,1.00
2022-10-19T11:52:58.075Z,0.30
2022-10-19T11:55:38.089Z,0.82
2022-10-19T11:58:17.524Z,0.20
2022-10-19T12:00:57.708Z,0.20
2022-10-19T12:03:51.032Z,0.30
2022-10-19T12:06:24.775Z,0.20
2022-10-19T12:09:05.982Z,0.30
2022-10-19T12:11:51.169Z,0.50
2022-10-19T12:14:22.075Z,0.65
2022-10-19T12:16:54.431Z,0.28
2022-10-19T12:19:26.354Z,0.40
2022-10-19T12:21:59.540Z,0.57
2022-10-19T12:24:29.309Z,0.20
2022-10-19T12:26:58.197Z,0.55
2022-10-19T12:29:30.371Z,0.20
2022-10-19T12:32:02.188Z,0.38
2022-10-19T12:34:38.608Z,0.63
2022-10-19T12:37:13.150Z,0.22
2022-10-19T12:39:49.800Z,0.28
2022-10-19T12:42:26.032Z,0.10
2022-10-19T12:45:14.588Z,0.30
2022-10-19T12:48:20.062Z,0.22
2022-10-19T12:51:03.386Z,0.30
2022-10-19T12:53:36.101Z,0.47
2022-10-19T12:56:07.299Z,0.10
2022-10-19T12:58:45.035Z,0.40
2022-10-19T13:01:20.969Z,0.17
2022-10-19T13:03:52.573Z,0.20
2022-10-19T13:06:33.954Z,0.40
2022-10-19T13:09:05.084Z,0.20
2022-10-19T13:14:08.860Z,0.30
2022-10-19T13:16:59.119Z,0.15
2022-10-19T13:19:27.447Z,0.10
2022-10-19T13:22:26.619Z,0.20
2022-10-19T13:25:28.083Z,0.30
2022-10-19T13:27:58.324Z,0.52
2022-10-19T13:31:06.169Z,0.10
2022-10-19T13:33:50.712Z,0.10
2022-10-19T13:36:19.291Z,0.22
2022-10-19T13:39:05.871Z,0.35
2022-10-19T13:41:50.015Z,0.20
2022-10-19T13:44:25.111Z,0.55
2022-10-19T13:47:22.310Z,0.35
2022-10-19T13:50:18.364Z,0.40
2022-10-19T13:53:10.909Z,0.40
2022-10-19T13:56:12.488Z,0.30
2022-10-19T13:59:08.577Z,0.20
2022-10-19T14:01:51.152Z,0.00
2022-10-19T14:04:25.177Z,0.30
2022-10-19T14:06:57.223Z,0.57
2022-10-19T14:09:49.524Z,0.38
2022-10-19T14:12:24.430Z,0.22
2022-10-19T14:14:53.540Z,0.40
2022-10-19T14:17:24.643Z,0.25
2022-10-19T14:19:55.405Z,0.10
2022-10-19T14:22:29.984Z,0.25
2022-10-19T14:25:07.049Z,0.13
2022-10-19T14:27:37.084Z,0.10
2022-10-19T14:30:06.679Z,0.20
2022-10-19T14:32:36.079Z,0.20
2022-10-19T14:35:07.727Z,0.30
2022-10-19T14:37:37.794Z,0.20
2022-10-19T14:40:08.958Z,0.17
2022-10-19T14:42:41.887Z,0.20
2022-10-19T14:45:18.963Z,0.20
2022-10-19T14:47:55.499Z,0.40
2022-10-19T14:50:27.931Z,0.43
2022-10-19T14:53:02.420Z,0.13
2022-10-19T14:55:36.081Z,0.28
2022-10-19T14:58:17.843Z,0.20
2022-10-19T15:00:49.456Z,0.20
2022-10-19T15:03:23.844Z,0.10
2022-10-19T15:05:56.488Z,0.20
2022-10-19T15:08:32.593Z,0.10
2022-10-19T15:11:01.213Z,0.20
2022-10-19T15:13:33.556Z,0.10
2022-10-19T15:16:01.930Z,0.30
2022-10-19T15:18:49.731Z,0.30
2022-10-19T15:21:20.762Z,0.27
2022-10-19T15:23:51.503Z,0.20
2022-10-19T15:26:22.104Z,0.30
2022-10-19T15:28:51.641Z,0.35
2022-10-19T15:31:21.746Z,1.05
2022-10-19T15:33:52.503Z,0.20
2022-10-19T15:36:21.911Z,0.52
2022-10-19T15:39:11.455Z,0.40
2022-10-19T15:41:48.292Z,0.47
2022-10-19T15:44:33.514Z,0.20
2022-10-19T15:47:21.747Z,0.22
2022-10-19T15:49:55.643Z,0.20
2022-10-19T15:52:25.258Z,0.10
2022-10-19T15:54:54.779Z,0.00
2022-10-19T15:57:29.891Z,0.30
2022-10-19T16:00:01.172Z,0.22
2022-10-19T16:02:29.389Z,0.10
2022-10-19T16:04:57.469Z,0.40
2022-10-19T16:07:28.313Z,0.20
2022-10-19T16:09:56.395Z,0.30
2022-10-19T16:12:26.351Z,0.22
2022-10-19T16:14:54.907Z,0.32
2022-10-19T16:17:24.846Z,0.13
2022-10-19T16:19:52.916Z,0.20
2022-10-19T16:22:21.075Z,0.30
2022-10-19T16:24:49.276Z,0.32
2022-10-19T16:27:17.433Z,0.63
2022-10-19T16:29:46.077Z,0.52
2022-10-19T16:32:14.194Z,0.23
2022-10-19T16:34:43.620Z,1.00
2022-10-19T16:39:39.567Z,0.50
2022-10-19T16:42:07.631Z,0.40
2022-10-19T16:44:35.700Z,0.20
2022-10-19T16:47:04.039Z,0.90
2022-10-19T16:49:32.362Z,0.68
2022-10-19T16:52:01.911Z,0.30
2022-10-19T16:54:30.753Z,0.10
2022-10-19T16:56:58.841Z,0.55
2022-10-19T16:59:26.891Z,0.60
2022-10-19T17:01:55.212Z,1.48
2022-10-19T17:04:23.356Z,0.38
2022-10-19T17:06:51.453Z,1.75
2022-10-19T17:09:40.755Z,1.00
2022-10-19T17:14:39.116Z,0.52
2022-10-19T17:17:07.242Z,0.25
2022-10-19T17:19:35.313Z,1.50
2022-10-19T17:22:05.149Z,0.35
2022-10-19T17:24:34.923Z,0.28
2022-10-19T17:27:04.052Z,0.98
2022-10-19T17:29:32.359Z,0.35
2022-10-19T17:32:00.737Z,0.40
2022-10-19T17:34:28.852Z,0.50
2022-10-19T17:36:56.955Z,0.32
2022-10-19T17:39:29.154Z,0.63
2022-10-19T17:42:02.050Z,0.73
2022-10-19T17:44:31.595Z,0.17
2022-10-19T17:49:29.763Z,0.43
2022-10-19T17:51:57.952Z,0.60
2022-10-19T17:54:26.113Z,0.30
2022-10-19T17:56:54.299Z,0.80
2022-10-19T17:59:34.953Z,0.40
2022-10-19T18:02:09.366Z,0.50
2022-10-19T18:04:37.429Z,0.23
2022-10-19T18:07:05.487Z,0.50
2022-10-19T18:09:33.529Z,0.43
2022-10-19T18:12:05.022Z,0.30
2022-10-19T18:14:36.637Z,1.33
2022-10-19T18:17:04.699Z,0.20
2022-10-19T18:19:33.067Z,0.40
2022-10-19T18:22:01.161Z,0.63
2022-10-19T18:24:29.258Z,0.30
2022-10-19T18:26:57.400Z,0.30
2022-10-19T18:29:27.207Z,0.38
2022-10-19T18:31:56.701Z,0.55
2022-10-19T18:34:26.390Z,0.38
2022-10-19T18:39:23.599Z,0.35
2022-10-19T18:41:54.505Z,1.20
2022-10-19T18:44:26.513Z,0.75
2022-10-19T18:46:57.858Z,0.73
2022-10-19T18:49:26.576Z,0.30
2022-10-19T18:51:55.848Z,0.23
2022-10-19T18:54:24.604Z,0.73
2022-10-19T18:56:53.246Z,0.20
2022-10-19T18:59:21.301Z,0.40
2022-10-19T19:01:49.513Z,0.47
2022-10-19T19:04:18.978Z,0.45
2022-10-19T19:06:47.196Z,0.22
2022-10-19T19:09:17.352Z,1.20
2022-10-19T19:11:45.450Z,0.20
2022-10-19T19:14:15.728Z,0.30
2022-10-19T19:16:45.983Z,0.30
2022-10-19T19:19:16.428Z,0.28
2022-10-19T19:21:46.781Z,0.38
2022-10-19T19:24:17.048Z,1.38
2022-10-19T19:26:48.519Z,0.85
2022-10-19T19:29:17.404Z,0.40
2022-10-19T19:31:45.520Z,0.40
2022-10-19T19:34:13.625Z,0.45
2022-10-19T19:36:47.012Z,0.35
2022-10-19T19:39:19.909Z,0.70
2022-10-19T19:41:48.823Z,0.43
2022-10-19T19:44:17.300Z,1.13
2022-10-19T19:46:45.501Z,1.08
2022-10-19T19:49:13.556Z,0.52
2022-10-19T19:51:41.632Z,0.63
2022-10-19T19:54:09.719Z,1.02
2022-10-19T19:56:40.100Z,0.50
2022-10-19T19:59:08.161Z,0.80
2022-10-19T20:01:37.341Z,0.60
2022-10-19T20:04:06.250Z,0.70
2022-10-19T20:06:36.416Z,0.60
2022-10-19T20:09:05.259Z,0.20
2022-10-19T20:11:36.105Z,0.50
2022-10-19T20:14:07.821Z,0.80
2022-10-19T20:16:36.991Z,0.40
2022-10-19T20:19:08.276Z,0.57
2022-10-19T20:21:36.944Z,0.77
2022-10-19T20:24:05.404Z,0.45
2022-10-19T20:26:33.602Z,0.70
2022-10-19T20:29:03.007Z,0.63
2022-10-19T20:31:33.556Z,0.40
2022-10-19T20:34:01.897Z,0.40
2022-10-19T20:36:30.075Z,0.43
2022-10-19T20:38:59.544Z,0.50
2022-10-19T20:41:29.566Z,0.50
2022-10-19T20:43:58.217Z,1.02
2022-10-19T20:46:29.036Z,0.30
2022-10-19T20:49:00.434Z,0.32
2022-10-19T20:51:32.098Z,0.30
2022-10-19T20:54:02.774Z,0.82
2022-10-19T20:56:32.744Z,0.40
2022-10-19T21:01:32.871Z,0.30
2022-10-19T21:06:33.239Z,0.30
2022-10-19T21:11:31.534Z,0.82
2022-10-19T21:14:01.260Z,0.30
2022-10-19T21:16:33.618Z,0.50
2022-10-19T21:19:04.091Z,0.85
2022-10-19T21:21:33.609Z,0.38
2022-10-19T21:24:04.498Z,0.30
2022-10-19T21:26:34.583Z,0.22
2022-10-19T21:29:03.104Z,0.40
2022-10-19T21:31:31.232Z,0.45
2022-10-19T21:33:59.402Z,0.40
2022-10-19T21:36:28.859Z,1.08
2022-10-19T21:38:57.534Z,0.52
2022-10-19T21:41:26.539Z,1.23
2022-10-19T21:43:54.815Z,0.30
2022-10-19T21:46:24.236Z,0.35
2022-10-19T21:48:53.223Z,0.77
2022-10-19T21:51:34.893Z,0.60
2022-10-19T21:54:05.674Z,0.40
2022-10-19T21:56:35.140Z,0.95
2022-10-19T21:59:03.466Z,0.40
2022-10-19T22:01:38.518Z,0.93
2022-10-19T22:04:12.103Z,0.85
2022-10-19T22:06:40.746Z,0.75
2022-10-19T22:09:11.716Z,1.08
2022-10-19T22:11:39.844Z,0.40
2022-10-19T22:14:07.884Z,0.40
2022-10-19T22:16:37.098Z,0.45
2022-10-19T22:19:06.279Z,0.28
2022-10-19T22:21:35.277Z,0.57
2022-10-19T22:24:05.748Z,0.23
2022-10-19T22:26:36.975Z,0.57
2022-10-19T22:29:06.525Z,0.20
2022-10-19T22:31:36.557Z,0.50
2022-10-19T22:34:07.265Z,0.50
2022-10-19T22:36:35.520Z,0.40
2022-10-19T22:39:03.826Z,0.65
2022-10-19T22:41:32.136Z,0.30
2022-10-19T22:44:01.737Z,0.68
2022-10-19T22:46:29.847Z,0.57
2022-10-19T22:48:57.949Z,0.75
2022-10-19T22:51:26.050Z,0.50
2022-10-19T22:53:54.148Z,0.32
2022-10-19T22:56:22.216Z,1.83
2022-10-19T22:58:50.341Z,0.52
2022-10-19T23:01:19.961Z,0.38
2022-10-19T23:03:48.140Z,0.75
2022-10-19T23:06:16.263Z,0.20
2022-10-19T23:08:44.539Z,0.65
2022-10-19T23:11:13.186Z,0.30
2022-10-19T23:13:41.972Z,1.65
2022-10-19T23:16:10.904Z,0.88
2022-10-19T23:18:42.106Z,0.73
2022-10-19T23:21:12.838Z,0.38
2022-10-19T23:23:41.500Z,1.23
2022-10-19T23:26:12.832Z,0.90
2022-10-19T23:28:43.753Z,0.73
2022-10-19T23:31:13.780Z,0.43
2022-10-19T23:33:43.992Z,0.73
2022-10-19T23:36:15.231Z,0.47
2022-10-19T23:38:43.917Z,0.45
2022-10-19T23:41:12.752Z,0.40
2022-10-19T23:43:41.297Z,0.47
2022-10-19T23:46:09.952Z,0.82
2022-10-19T23:48:39.748Z,0.75
2022-10-19T23:51:11.760Z,0.77
2022-10-19T23:53:41.765Z,0.93
2022-10-19T23:56:12.578Z,0.30
2022-10-19T23:58:40.746Z,0.55
